Terminal Aerodrome Forecast
Issued by NWS Raleigh/Durham, NC

Home | Current Version | Previous Version | Text Only | Print | Product List | Glossary On
Versions: 1 2 3 4 5 6 7 8 9 10 11 12 13 14 15 16 17 18 19 20 21 22 23 24 25 26 27 28 29 30 31 32 33 34 35 36
000
FTUS42 KRAH 281629 AAB
TAFRDU
TAF AMD
KRDU 281629Z 2816/2912 23010KT P6SM -RA SCT007 OVC012
      TEMPO 2816/2820 4SM -RA BR BKN007
     FM282200 26006KT 6SM BR BKN017 OVC035
     FM290600 36005KT 4SM -RA BR OVC012=

USA.gov is the U.S. government's official web portal to all federal, state and local government web resources and services.